createdAt,value
2018-07-26T00:00:34.803Z,24.8
2018-07-26T00:01:25.166Z,24.8
2018-07-26T00:02:15.487Z,24.8
2018-07-26T00:03:05.332Z,24.8
2018-07-26T00:03:54.654Z,24.8
2018-07-26T00:04:44.022Z,24.8
2018-07-26T00:05:35.511Z,24.8
2018-07-26T00:06:24.756Z,24.8
2018-07-26T00:07:14.491Z,24.7
2018-07-26T00:08:05.252Z,24.7
2018-07-26T00:08:54.992Z,24.7
2018-07-26T00:09:45.100Z,24.7
2018-07-26T00:10:35.552Z,24.6
2018-07-26T00:11:26.076Z,24.6
2018-07-26T00:12:14.437Z,24.7
2018-07-26T00:13:04.192Z,24.6
2018-07-26T00:13:55.612Z,24.7
2018-07-26T00:14:45.919Z,24.6
2018-07-26T00:15:36.019Z,24.6
2018-07-26T00:16:26.083Z,24.6
2018-07-26T00:17:16.101Z,24.6
2018-07-26T00:18:05.942Z,24.6
2018-07-26T00:18:56.286Z,24.6
2018-07-26T00:19:45.836Z,24.6
2018-07-26T00:20:35.644Z,24.6
2018-07-26T00:21:25.115Z,24.6
2018-07-26T00:22:16.340Z,24.6
2018-07-26T00:23:05.275Z,24.6
2018-07-26T00:23:56.124Z,24.6
2018-07-26T00:24:46.750Z,24.6
2018-07-26T00:25:36.731Z,24.6
2018-07-26T00:26:27.162Z,24.6
2018-07-26T00:27:16.352Z,24.6
2018-07-26T00:28:06.152Z,24.6
2018-07-26T00:28:56.995Z,24.6
2018-07-26T00:29:47.348Z,24.6
2018-07-26T00:30:37.728Z,24.6
2018-07-26T00:31:26.945Z,24.6
2018-07-26T00:32:17.846Z,24.6
2018-07-26T00:33:06.481Z,24.6
2018-07-26T00:33:56.885Z,24.6
2018-07-26T00:34:47.459Z,24.6
2018-07-26T00:35:37.471Z,24.6
2018-07-26T00:36:27.532Z,24.6
2018-07-26T00:37:17.678Z,24.6
2018-07-26T00:38:08.027Z,24.6
2018-07-26T00:38:58.120Z,24.6
2018-07-26T00:39:47.591Z,24.6
2018-07-26T00:40:38.492Z,24.6
2018-07-26T00:41:27.687Z,24.6
2018-07-26T00:42:18.050Z,24.5
2018-07-26T00:43:06.745Z,24.5
2018-07-26T00:43:58.150Z,24.5
2018-07-26T00:44:47.431Z,24.5
2018-07-26T00:45:38.597Z,24.6
2018-07-26T00:46:28.667Z,24.6
2018-07-26T00:47:18.756Z,24.6
2018-07-26T00:48:08.518Z,24.6
2018-07-26T00:48:59.922Z,24.6
2018-07-26T00:49:48.065Z,24.6
2018-07-26T00:50:38.730Z,24.6
2018-07-26T00:51:28.538Z,24.6
2018-07-26T00:52:18.567Z,24.6
2018-07-26T00:53:08.665Z,24.6
2018-07-26T00:53:58.437Z,24.6
2018-07-26T00:54:49.287Z,24.6
2018-07-26T00:55:39.068Z,24.6
2018-07-26T00:56:29.394Z,24.6
2018-07-26T00:57:18.663Z,24.6
2018-07-26T00:58:09.210Z,24.6
2018-07-26T00:58:59.915Z,24.6
2018-07-26T00:59:49.354Z,24.6
2018-07-26T01:00:39.489Z,24.6
2018-07-26T01:01:28.910Z,24.6
2018-07-26T01:02:19.033Z,24.6
2018-07-26T01:03:09.917Z,24.6
2018-07-26T01:03:58.894Z,24.6
2018-07-26T01:04:50.048Z,24.6
2018-07-26T01:05:39.355Z,24.6
2018-07-26T01:06:30.476Z,24.6
2018-07-26T01:07:20.191Z,24.6
2018-07-26T01:08:10.599Z,24.6
2018-07-26T01:08:59.502Z,24.6
2018-07-26T01:09:50.122Z,24.6
2018-07-26T01:10:40.209Z,24.6
2018-07-26T01:11:30.359Z,24.6
2018-07-26T01:12:20.658Z,24.6
2018-07-26T01:13:09.615Z,24.6
2018-07-26T01:14:00.282Z,24.6
2018-07-26T01:14:50.561Z,24.6
2018-07-26T01:15:40.468Z,24.6
2018-07-26T01:16:29.541Z,24.6
2018-07-26T01:17:21.008Z,24.6
2018-07-26T01:18:10.235Z,24.6
2018-07-26T01:19:01.116Z,24.6
2018-07-26T01:19:51.445Z,24.6
2018-07-26T01:20:41.350Z,24.6
2018-07-26T01:21:31.381Z,24.6
2018-07-26T01:22:21.386Z,24.6
2018-07-26T01:23:10.618Z,24.6
2018-07-26T01:24:01.015Z,24.6
2018-07-26T01:24:50.816Z,24.6
2018-07-26T01:25:41.953Z,24.6
2018-07-26T01:26:30.861Z,24.6
2018-07-26T01:27:21.851Z,24.6
2018-07-26T01:28:11.577Z,24.6
2018-07-26T01:29:01.117Z,24.7
2018-07-26T01:29:51.488Z,24.7
2018-07-26T01:30:41.240Z,24.7
2018-07-26T01:31:32.055Z,24.7
2018-07-26T01:32:20.816Z,24.6
2018-07-26T01:33:11.487Z,24.6
2018-07-26T01:34:01.002Z,24.6
2018-07-26T01:34:51.567Z,24.6
2018-07-26T01:35:42.218Z,24.6
2018-07-26T01:36:31.433Z,24.6
2018-07-26T01:37:22.780Z,24.6
2018-07-26T01:38:12.873Z,24.6
2018-07-26T01:39:02.063Z,24.6
2018-07-26T01:39:51.370Z,24.6
2018-07-26T01:40:42.205Z,24.6
2018-07-26T01:41:31.748Z,24.6
2018-07-26T01:42:21.990Z,24.6
2018-07-26T01:43:12.465Z,24.6
2018-07-26T01:44:02.698Z,24.6
2018-07-26T01:44:52.715Z,24.6
2018-07-26T01:45:43.003Z,24.6
2018-07-26T01:46:32.728Z,24.6
2018-07-26T01:47:23.175Z,24.6
2018-07-26T01:48:12.313Z,24.6
2018-07-26T01:49:03.498Z,24.6
2018-07-26T01:49:52.940Z,24.6
2018-07-26T01:50:42.784Z,24.6
2018-07-26T01:51:33.403Z,24.6
2018-07-26T01:52:23.632Z,24.6
2018-07-26T01:53:13.512Z,24.6
2018-07-26T01:54:03.294Z,24.6
2018-07-26T01:54:53.078Z,24.6
2018-07-26T01:55:43.650Z,24.6
2018-07-26T01:56:33.990Z,24.6
2018-07-26T01:57:24.283Z,24.6
2018-07-26T01:58:13.570Z,24.6
2018-07-26T01:59:04.207Z,24.6
2018-07-26T01:59:54.208Z,24.6
2018-07-26T02:00:44.303Z,24.5
2018-07-26T02:01:34.821Z,24.5
2018-07-26T02:02:24.133Z,24.6
2018-07-26T02:03:13.985Z,24.6
2018-07-26T02:04:04.316Z,24.6
2018-07-26T02:04:54.891Z,24.6
2018-07-26T02:05:44.414Z,24.5
2018-07-26T02:06:33.995Z,24.5
2018-07-26T02:07:24.624Z,24.5
2018-07-26T02:08:14.937Z,24.5
2018-07-26T02:09:04.729Z,24.6
2018-07-26T02:09:54.559Z,24.6
2018-07-26T02:10:44.584Z,24.5
2018-07-26T02:11:34.393Z,24.5
2018-07-26T02:12:24.652Z,24.5
2018-07-26T02:13:15.074Z,24.5
2018-07-26T02:14:05.095Z,24.5
2018-07-26T02:14:55.204Z,24.5
2018-07-26T02:15:45.202Z,24.5
2018-07-26T02:16:35.279Z,24.5
2018-07-26T02:17:25.379Z,24.5
2018-07-26T02:18:15.723Z,24.5
2018-07-26T02:19:06.055Z,24.5
2018-07-26T02:19:56.138Z,24.5
2018-07-26T02:20:45.919Z,24.5
2018-07-26T02:21:34.555Z,24.4
2018-07-26T02:22:25.715Z,24.5
2018-07-26T02:23:15.525Z,24.5
2018-07-26T02:24:06.142Z,24.5
2018-07-26T02:24:56.015Z,24.5
2018-07-26T02:25:45.471Z,24.5
2018-07-26T02:26:36.459Z,24.5
2018-07-26T02:27:26.380Z,24.5
2018-07-26T02:28:15.454Z,24.5
2018-07-26T02:29:06.537Z,24.5
2018-07-26T02:29:55.814Z,24.5
2018-07-26T02:30:45.598Z,24.5
2018-07-26T02:31:35.688Z,24.5
2018-07-26T02:32:25.308Z,24.5
2018-07-26T02:33:15.871Z,24.5
2018-07-26T02:34:06.213Z,24.4
2018-07-26T02:34:56.048Z,24.4
2018-07-26T02:35:46.070Z,24.4
2018-07-26T02:36:36.109Z,24.4
2018-07-26T02:37:26.690Z,24.4
2018-07-26T02:38:16.772Z,24.4
2018-07-26T02:39:06.571Z,24.4
2018-07-26T02:39:56.333Z,24.4
2018-07-26T02:40:47.715Z,24.4
2018-07-26T02:41:37.315Z,24.4
2018-07-26T02:42:27.545Z,24.4
2018-07-26T02:43:17.355Z,24.4
2018-07-26T02:44:06.014Z,24.4
2018-07-26T02:44:57.762Z,24.4
2018-07-26T02:45:47.540Z,24.4
2018-07-26T02:46:37.541Z,24.4
2018-07-26T02:47:28.190Z,24.4
2018-07-26T02:48:17.450Z,24.4
2018-07-26T02:49:07.573Z,24.4
2018-07-26T02:49:57.166Z,24.4
2018-07-26T02:50:47.948Z,24.4
2018-07-26T02:51:37.753Z,24.4
2018-07-26T02:52:28.064Z,24.3
2018-07-26T02:53:18.177Z,24.4
2018-07-26T02:54:07.596Z,24.3
2018-07-26T02:54:58.553Z,24.3
2018-07-26T02:55:48.044Z,24.3
2018-07-26T02:56:38.344Z,24.3
2018-07-26T02:57:27.862Z,24.3
2018-07-26T02:58:17.652Z,24.3
2018-07-26T02:59:08.077Z,24.3
2018-07-26T02:59:59.208Z,24.3
2018-07-26T03:00:49.002Z,24.3
2018-07-26T03:01:37.914Z,24.3
2018-07-26T03:02:29.127Z,24.3
2018-07-26T03:03:18.902Z,24.3
2018-07-26T03:04:08.947Z,24.3
2018-07-26T03:04:58.952Z,24.3
2018-07-26T03:05:48.840Z,24.3
2018-07-26T03:06:38.560Z,24.3
2018-07-26T03:07:29.224Z,24.3
2018-07-26T03:08:18.702Z,24.3
2018-07-26T03:09:08.766Z,24.3
2018-07-26T03:09:59.981Z,24.3
2018-07-26T03:10:49.461Z,24.3
2018-07-26T03:11:38.934Z,24.3
2018-07-26T03:12:29.282Z,24.3
2018-07-26T03:13:19.411Z,24.3
2018-07-26T03:14:09.716Z,24.3
2018-07-26T03:15:00.059Z,24.3
2018-07-26T03:15:49.956Z,24.3
2018-07-26T03:16:39.921Z,24.3
2018-07-26T03:17:29.988Z,24.3
2018-07-26T03:18:19.796Z,24.3
2018-07-26T03:19:09.559Z,24.3
2018-07-26T03:19:59.879Z,24.3
2018-07-26T03:20:50.451Z,24.3
2018-07-26T03:21:40.661Z,24.2
2018-07-26T03:22:30.440Z,24.3
2018-07-26T03:23:20.171Z,24.2
2018-07-26T03:24:10.502Z,24.3
2018-07-26T03:25:00.060Z,24.2
2018-07-26T03:25:50.502Z,24.2
2018-07-26T03:26:40.391Z,24.2
2018-07-26T03:27:30.785Z,24.2
2018-07-26T03:28:20.782Z,24.2
2018-07-26T03:29:10.554Z,24.2
2018-07-26T03:30:00.929Z,24.2
2018-07-26T03:30:51.357Z,24.2
2018-07-26T03:31:40.535Z,24.2
2018-07-26T03:32:29.397Z,24.2
2018-07-26T03:33:21.176Z,24.2
2018-07-26T03:34:10.637Z,24.2
2018-07-26T03:35:01.289Z,24.2
2018-07-26T03:35:50.774Z,24.2
2018-07-26T03:36:41.457Z,24.2
2018-07-26T03:37:31.412Z,24.2
2018-07-26T03:38:21.845Z,24.1
2018-07-26T03:39:11.578Z,24.2
2018-07-26T03:40:01.652Z,24.2
2018-07-26T03:40:50.314Z,24.2
2018-07-26T03:41:41.806Z,24.1
2018-07-26T03:42:32.213Z,24.1
2018-07-26T03:43:22.441Z,24.2
2018-07-26T03:44:12.268Z,24.2
2018-07-26T03:45:02.358Z,24.1
2018-07-26T03:45:52.344Z,24.1
2018-07-26T03:46:42.691Z,24.1
2018-07-26T03:47:32.444Z,24.1
2018-07-26T03:48:21.412Z,24.1
2018-07-26T03:49:11.759Z,24.1
2018-07-26T03:50:01.549Z,24.1
2018-07-26T03:50:52.547Z,24.1
2018-07-26T03:51:42.568Z,24.2
2018-07-26T03:52:32.867Z,24.1
2018-07-26T03:53:21.856Z,24.1
2018-07-26T03:54:12.741Z,24.2
2018-07-26T03:55:03.096Z,24.2
2018-07-26T03:55:52.978Z,24.2
2018-07-26T03:56:42.690Z,24.1
2018-07-26T03:57:32.699Z,24.1
2018-07-26T03:58:23.371Z,24.1
2018-07-26T03:59:13.127Z,24.1
2018-07-26T04:00:02.367Z,24.2
2018-07-26T04:00:53.574Z,24.2
2018-07-26T04:01:43.888Z,24.1
2018-07-26T04:02:32.820Z,24.1
2018-07-26T04:03:24.244Z,24.1
2018-07-26T04:04:12.680Z,24.1
2018-07-26T04:05:03.912Z,24.1
2018-07-26T04:05:53.925Z,24.2
2018-07-26T04:06:44.354Z,24.2
2018-07-26T04:07:33.203Z,24.2
2018-07-26T04:08:23.854Z,24.2
2018-07-26T04:09:13.056Z,24.2
2018-07-26T04:10:03.995Z,24.2
2018-07-26T04:10:53.552Z,24.1
2018-07-26T04:11:44.627Z,24.2
2018-07-26T04:12:33.836Z,24.1
2018-07-26T04:13:24.195Z,24.2
2018-07-26T04:14:15.251Z,24.2
2018-07-26T04:15:04.232Z,24.2
2018-07-26T04:15:54.904Z,24.2
2018-07-26T04:16:44.740Z,24.2
2018-07-26T04:17:34.516Z,24.1
2018-07-26T04:18:24.581Z,24.2
2018-07-26T04:19:15.165Z,24.2
2018-07-26T04:20:05.711Z,24.2
2018-07-26T04:20:55.369Z,24.2
2018-07-26T04:21:44.565Z,24.2
2018-07-26T04:22:35.136Z,24.2
2018-07-26T04:23:25.479Z,24.2
2018-07-26T04:24:15.284Z,24.2
2018-07-26T04:25:04.767Z,24.2
2018-07-26T04:25:54.927Z,24.2
2018-07-26T04:26:44.990Z,24.2
2018-07-26T04:27:35.087Z,24.3
2018-07-26T04:28:24.590Z,24.2
2018-07-26T04:29:15.745Z,24.2
2018-07-26T04:30:04.640Z,24.2
2018-07-26T04:30:54.159Z,24.3
2018-07-26T04:31:46.194Z,24.3
2018-07-26T04:32:35.684Z,24.3
2018-07-26T04:33:25.516Z,24.3
2018-07-26T04:34:15.565Z,24.3
2018-07-26T04:35:05.886Z,24.3
2018-07-26T04:35:55.916Z,24.3
2018-07-26T04:36:45.264Z,24.3
2018-07-26T04:37:36.027Z,24.3
2018-07-26T04:38:26.363Z,24.3
2018-07-26T04:39:15.464Z,24.3
2018-07-26T04:40:06.507Z,24.3
2018-07-26T04:40:55.480Z,24.3
2018-07-26T04:41:46.369Z,24.3
2018-07-26T04:42:35.862Z,24.3
2018-07-26T04:43:25.986Z,24.3
2018-07-26T04:44:16.575Z,24.3
2018-07-26T04:45:06.364Z,24.3
2018-07-26T04:45:56.709Z,24.3
2018-07-26T04:46:46.708Z,24.3
2018-07-26T04:47:36.892Z,24.3
2018-07-26T04:48:27.201Z,24.3
2018-07-26T04:49:16.945Z,24.3
2018-07-26T04:50:07.527Z,24.3
2018-07-26T04:50:57.100Z,24.4
2018-07-26T04:51:47.430Z,24.4
2018-07-26T04:52:37.207Z,24.4
2018-07-26T04:53:27.463Z,24.4
2018-07-26T04:54:17.727Z,24.4
2018-07-26T04:55:07.644Z,24.4
2018-07-26T04:55:57.154Z,24.3
2018-07-26T04:56:47.535Z,24.4
2018-07-26T04:57:37.370Z,24.4
2018-07-26T04:58:27.613Z,24.4
2018-07-26T04:59:17.959Z,24.4
2018-07-26T05:00:06.656Z,24.4
2018-07-26T05:00:57.603Z,24.4
2018-07-26T05:01:47.613Z,24.4
2018-07-26T05:02:37.944Z,24.4
2018-07-26T05:03:28.018Z,24.4
2018-07-26T05:04:18.023Z,24.4
2018-07-26T05:05:08.743Z,24.4
2018-07-26T05:05:58.195Z,24.4
2018-07-26T05:06:48.094Z,24.4
2018-07-26T05:07:37.535Z,24.4
2018-07-26T05:08:28.456Z,24.4
2018-07-26T05:09:17.957Z,24.4
2018-07-26T05:10:08.578Z,24.4
2018-07-26T05:10:58.580Z,24.4
2018-07-26T05:11:49.006Z,24.4
2018-07-26T05:12:39.069Z,24.4
2018-07-26T05:13:28.839Z,24.4
2018-07-26T05:14:18.562Z,24.4
2018-07-26T05:15:22.860Z,24.4
2018-07-26T05:15:59.033Z,24.4
2018-07-26T05:16:48.215Z,24.4
2018-07-26T05:17:39.661Z,24.4
2018-07-26T05:18:30.174Z,24.4
2018-07-26T05:19:20.386Z,24.4
2018-07-26T05:20:09.603Z,24.4
2018-07-26T05:20:59.088Z,24.4
2018-07-26T05:21:49.687Z,24.4
2018-07-26T05:22:38.950Z,24.4
2018-07-26T05:23:29.775Z,24.4
2018-07-26T05:24:19.595Z,24.4
2018-07-26T05:25:10.260Z,24.4
2018-07-26T05:26:00.265Z,24.4
2018-07-26T05:26:49.798Z,24.4
2018-07-26T05:27:40.528Z,24.4
2018-07-26T05:28:29.896Z,24.4
2018-07-26T05:29:19.705Z,24.4
2018-07-26T05:30:10.622Z,24.4
2018-07-26T05:31:00.064Z,24.4
2018-07-26T05:31:50.502Z,24.4
2018-07-26T05:32:39.963Z,24.4
2018-07-26T05:33:30.058Z,24.4
2018-07-26T05:34:20.997Z,24.4
2018-07-26T05:35:10.757Z,24.4
2018-07-26T05:36:00.504Z,24.4
2018-07-26T05:36:50.571Z,24.4
2018-07-26T05:37:40.761Z,24.4
2018-07-26T05:38:31.002Z,24.4
2018-07-26T05:39:20.775Z,24.4
2018-07-26T05:40:11.354Z,24.4
2018-07-26T05:41:01.451Z,24.4
2018-07-26T05:41:51.013Z,24.4
2018-07-26T05:42:40.735Z,24.4
2018-07-26T05:43:30.852Z,24.4
2018-07-26T05:44:21.176Z,24.4
2018-07-26T05:45:10.758Z,24.4
2018-07-26T05:46:01.792Z,24.4
2018-07-26T05:46:51.370Z,24.4
2018-07-26T05:47:41.714Z,24.4
2018-07-26T05:48:31.176Z,24.5
2018-07-26T05:49:21.551Z,24.5
2018-07-26T05:50:11.880Z,24.5
2018-07-26T05:51:01.473Z,24.5
2018-07-26T05:51:51.802Z,24.5
2018-07-26T05:52:42.160Z,24.5
2018-07-26T05:53:32.143Z,24.5
2018-07-26T05:54:22.561Z,24.5
2018-07-26T05:55:12.670Z,24.5
2018-07-26T05:56:01.046Z,24.5
2018-07-26T05:56:51.864Z,24.5
2018-07-26T05:57:41.730Z,24.4
2018-07-26T05:58:32.319Z,24.4
2018-07-26T05:59:22.342Z,24.4
2018-07-26T06:00:13.710Z,24.4
2018-07-26T06:01:02.947Z,24.4
2018-07-26T06:01:52.428Z,24.4
2018-07-26T06:02:42.833Z,24.4
2018-07-26T06:03:32.594Z,24.4
2018-07-26T06:04:23.234Z,24.4
2018-07-26T06:05:12.995Z,24.4
2018-07-26T06:06:03.069Z,24.4
2018-07-26T06:06:52.834Z,24.4
2018-07-26T06:07:43.168Z,24.4
2018-07-26T06:08:33.286Z,24.4
2018-07-26T06:09:23.619Z,24.4
2018-07-26T06:10:13.644Z,24.4
2018-07-26T06:11:03.701Z,24.4
2018-07-26T06:11:53.469Z,24.4
2018-07-26T06:12:42.998Z,24.5
2018-07-26T06:13:33.879Z,24.5
2018-07-26T06:14:23.414Z,24.5
2018-07-26T06:15:14.033Z,24.5
2018-07-26T06:16:04.234Z,24.5
2018-07-26T06:16:53.908Z,24.5
2018-07-26T06:17:44.263Z,24.5
2018-07-26T06:18:33.533Z,24.5
2018-07-26T06:19:23.615Z,24.6
2018-07-26T06:20:13.455Z,24.5
2018-07-26T06:21:04.588Z,24.6
2018-07-26T06:21:54.328Z,24.5
2018-07-26T06:22:43.392Z,24.5
2018-07-26T06:23:34.484Z,24.5
2018-07-26T06:24:24.576Z,24.6
2018-07-26T06:25:14.417Z,24.6
2018-07-26T06:26:03.841Z,24.6
2018-07-26T06:26:54.084Z,24.6
2018-07-26T06:27:43.937Z,24.6
2018-07-26T06:28:34.278Z,24.6
2018-07-26T06:29:25.169Z,24.6
2018-07-26T06:30:15.230Z,24.6
2018-07-26T06:31:05.280Z,24.6
2018-07-26T06:31:54.825Z,24.6
2018-07-26T06:32:44.823Z,24.7
2018-07-26T06:33:36.519Z,24.8
2018-07-26T06:34:25.253Z,24.8
2018-07-26T06:35:15.352Z,24.8
2018-07-26T06:36:05.161Z,24.8
2018-07-26T06:36:54.691Z,24.8
2018-07-26T06:37:45.810Z,24.8
2018-07-26T06:38:35.044Z,24.9
2018-07-26T06:39:25.501Z,24.9
2018-07-26T06:40:15.193Z,24.9
2018-07-26T06:41:05.810Z,24.9
2018-07-26T06:41:55.862Z,24.9
2018-07-26T06:42:45.382Z,24.9
2018-07-26T06:43:35.977Z,24.9
2018-07-26T06:44:25.743Z,24.9
2018-07-26T06:45:15.689Z,24.9
2018-07-26T06:46:05.948Z,25
2018-07-26T06:46:55.413Z,25
2018-07-26T06:47:46.323Z,25
2018-07-26T06:48:36.166Z,25
2018-07-26T06:49:25.569Z,25
2018-07-26T06:50:16.285Z,25
2018-07-26T06:51:06.397Z,25
2018-07-26T06:51:56.375Z,25
2018-07-26T06:52:45.840Z,25.1
2018-07-26T06:53:36.977Z,25.1
2018-07-26T06:54:26.527Z,25.1
2018-07-26T06:55:16.307Z,25
2018-07-26T06:56:06.649Z,25.1
2018-07-26T06:56:56.992Z,25.1
2018-07-26T06:57:45.747Z,25.1
2018-07-26T06:58:37.375Z,25.1
2018-07-26T06:59:26.915Z,25.1
2018-07-26T07:00:17.204Z,25.1
2018-07-26T07:01:06.835Z,25.1
2018-07-26T07:01:57.612Z,25.1
2018-07-26T07:02:47.717Z,25.1
2018-07-26T07:03:37.504Z,25.1
2018-07-26T07:04:27.883Z,25.1
2018-07-26T07:05:17.660Z,25.1
2018-07-26T07:06:07.387Z,25.1
2018-07-26T07:06:57.461Z,25.2
2018-07-26T07:07:47.529Z,25.1
2018-07-26T07:08:37.838Z,25.1
2018-07-26T07:09:27.659Z,25.1
2018-07-26T07:10:17.594Z,25.1
2018-07-26T07:11:07.314Z,25.2
2018-07-26T07:11:57.327Z,25.2
2018-07-26T07:12:47.731Z,25.2
2018-07-26T07:13:38.352Z,25.2
2018-07-26T07:14:28.547Z,25.3
2018-07-26T07:15:17.389Z,25.3
2018-07-26T07:16:08.211Z,25.2
2018-07-26T07:16:58.817Z,25.2
2018-07-26T07:17:48.303Z,25.3
2018-07-26T07:18:37.606Z,25.3
2018-07-26T07:19:27.903Z,25.3
2018-07-26T07:20:18.276Z,25.3
2018-07-26T07:21:08.631Z,25.3
2018-07-26T07:21:59.188Z,25.3
2018-07-26T07:22:49.246Z,25.3
2018-07-26T07:23:37.953Z,25.3
2018-07-26T07:24:28.839Z,25.3
2018-07-26T07:25:18.625Z,25.3
2018-07-26T07:26:10.051Z,25.3
2018-07-26T07:26:59.624Z,25.3
2018-07-26T07:27:48.566Z,25.3
2018-07-26T07:28:38.983Z,25.3
2018-07-26T07:29:29.861Z,25.3
2018-07-26T07:30:18.740Z,25.4
2018-07-26T07:31:09.341Z,25.3
2018-07-26T07:31:59.554Z,25.4
2018-07-26T07:32:49.011Z,25.4
2018-07-26T07:33:39.855Z,25.4
2018-07-26T07:34:29.878Z,25.4
2018-07-26T07:35:19.123Z,25.4
2018-07-26T07:36:07.660Z,25.4
2018-07-26T07:36:58.097Z,25.4
2018-07-26T07:37:50.449Z,25.4
2018-07-26T07:38:40.234Z,25.4
2018-07-26T07:39:30.029Z,25.4
2018-07-26T07:40:20.376Z,25.4
2018-07-26T07:41:10.298Z,25.4
2018-07-26T07:42:00.097Z,25.4
2018-07-26T07:42:49.975Z,25.4
2018-07-26T07:43:39.468Z,25.4
2018-07-26T07:44:30.615Z,25.4
2018-07-26T07:45:20.205Z,25.4
2018-07-26T07:46:09.981Z,25.4
2018-07-26T07:47:00.906Z,25.4
2018-07-26T07:47:51.475Z,25.4
2018-07-26T07:48:40.207Z,25.4
2018-07-26T07:49:30.848Z,25.4
2018-07-26T07:50:21.175Z,25.4
2018-07-26T07:51:11.243Z,25.4
2018-07-26T07:52:00.694Z,25.4
2018-07-26T07:52:50.932Z,25.4
2018-07-26T07:53:41.674Z,25.4
2018-07-26T07:54:31.456Z,25.5
2018-07-26T07:55:21.290Z,25.5
2018-07-26T07:56:11.293Z,25.5
2018-07-26T07:57:01.704Z,25.5
2018-07-26T07:57:50.704Z,25.5
2018-07-26T07:58:41.004Z,25.6
2018-07-26T07:59:32.542Z,25.6
2018-07-26T08:00:20.821Z,25.6
2018-07-26T08:01:11.948Z,25.6
2018-07-26T08:02:01.161Z,25.6
2018-07-26T08:02:51.889Z,25.6
2018-07-26T08:03:41.582Z,25.6
2018-07-26T08:04:31.338Z,25.7
2018-07-26T08:05:23.083Z,25.7
2018-07-26T08:06:12.144Z,25.7
2018-07-26T08:07:01.871Z,25.7
2018-07-26T08:07:52.149Z,25.7
2018-07-26T08:08:42.250Z,25.7
2018-07-26T08:09:32.606Z,25.7
2018-07-26T08:10:21.291Z,25.7
2018-07-26T08:11:12.922Z,25.7
2018-07-26T08:12:03.101Z,25.7
2018-07-26T08:12:52.435Z,25.7
2018-07-26T08:13:41.850Z,25.7
2018-07-26T08:14:31.849Z,25.7
2018-07-26T08:15:22.735Z,25.7
2018-07-26T08:16:13.448Z,25.7
2018-07-26T08:17:03.018Z,25.7
2018-07-26T08:17:53.290Z,25.7
2018-07-26T08:18:43.094Z,25.7
2018-07-26T08:19:32.572Z,25.7
2018-07-26T08:20:23.700Z,25.6
2018-07-26T08:21:13.087Z,25.7
2018-07-26T08:22:01.966Z,25.7
2018-07-26T08:22:53.691Z,25.7
2018-07-26T08:23:42.589Z,25.7
2018-07-26T08:24:33.204Z,25.7
2018-07-26T08:25:22.980Z,25.7
2018-07-26T08:26:13.632Z,25.7
2018-07-26T08:27:03.150Z,25.7
2018-07-26T08:27:54.051Z,25.7
2018-07-26T08:28:44.105Z,25.7
2018-07-26T08:29:34.551Z,25.7
2018-07-26T08:30:23.967Z,25.7
2018-07-26T08:31:14.307Z,25.7
2018-07-26T08:32:04.072Z,25.7
2018-07-26T08:32:53.912Z,25.7
2018-07-26T08:33:44.479Z,25.7
2018-07-26T08:34:33.787Z,25.7
2018-07-26T08:35:23.807Z,25.7
2018-07-26T08:36:14.468Z,25.7
2018-07-26T08:37:04.199Z,25.8
2018-07-26T08:37:55.109Z,25.8
2018-07-26T08:38:44.564Z,25.8
2018-07-26T08:39:34.961Z,25.8
2018-07-26T08:40:25.245Z,25.8
2018-07-26T08:41:16.388Z,25.8
2018-07-26T08:42:04.365Z,25.8
2018-07-26T08:42:54.843Z,25.8
2018-07-26T08:43:46.623Z,25.8
2018-07-26T08:44:35.306Z,25.8
2018-07-26T08:45:25.625Z,25.8
2018-07-26T08:46:15.692Z,25.8
2018-07-26T08:47:05.721Z,25.8
2018-07-26T08:47:54.785Z,25.8
2018-07-26T08:48:45.619Z,25.8
2018-07-26T08:49:35.722Z,25.8
2018-07-26T08:50:25.712Z,25.8
2018-07-26T08:51:15.045Z,25.8
2018-07-26T08:52:06.137Z,25.8
2018-07-26T08:52:56.248Z,25.8
2018-07-26T08:53:45.689Z,25.8
2018-07-26T08:54:35.835Z,25.8
2018-07-26T08:55:24.916Z,25.8
2018-07-26T08:56:15.429Z,25.8
2018-07-26T08:57:06.244Z,25.8
2018-07-26T08:57:56.317Z,25.8
2018-07-26T08:58:45.865Z,25.8
2018-07-26T08:59:36.728Z,25.8
2018-07-26T09:00:25.144Z,25.8
2018-07-26T09:01:18.192Z,25.8
2018-07-26T09:02:05.431Z,25.8
2018-07-26T09:02:55.891Z,25.8
2018-07-26T09:03:47.075Z,25.8
2018-07-26T09:04:36.327Z,25.8
2018-07-26T09:05:26.624Z,25.8
2018-07-26T09:06:17.038Z,25.8
2018-07-26T09:07:06.370Z,25.8
2018-07-26T09:07:56.306Z,25.9
2018-07-26T09:08:46.155Z,25.9
2018-07-26T09:09:37.020Z,25.9
2018-07-26T09:10:27.019Z,25.8
2018-07-26T09:11:16.684Z,25.8
2018-07-26T09:12:06.645Z,25.8
2018-07-26T09:12:56.775Z,25.8
2018-07-26T09:13:48.016Z,25.8
2018-07-26T09:14:37.967Z,25.8
2018-07-26T09:15:27.434Z,25.8
2018-07-26T09:16:17.805Z,25.8
2018-07-26T09:17:07.926Z,25.8
2018-07-26T09:17:56.937Z,25.8
2018-07-26T09:18:48.251Z,25.8
2018-07-26T09:19:38.553Z,25.8
2018-07-26T09:20:28.315Z,25.8
2018-07-26T09:21:17.935Z,25.8
2018-07-26T09:22:08.203Z,25.8
2018-07-26T09:22:58.286Z,25.8
2018-07-26T09:23:48.593Z,25.8
2018-07-26T09:24:39.535Z,25.8
2018-07-26T09:25:28.468Z,25.8
2018-07-26T09:26:19.575Z,25.8
2018-07-26T09:27:08.557Z,25.8
2018-07-26T09:27:57.901Z,25.8
2018-07-26T09:28:49.313Z,25.9
2018-07-26T09:29:38.788Z,25.9
2018-07-26T09:30:29.127Z,25.9
2018-07-26T09:31:18.904Z,25.8
2018-07-26T09:32:08.733Z,25.8
2018-07-26T09:32:59.314Z,25.9
2018-07-26T09:33:49.136Z,25.9
2018-07-26T09:34:39.265Z,25.9
2018-07-26T09:35:30.296Z,25.8
2018-07-26T09:36:19.057Z,25.9
2018-07-26T09:37:09.381Z,25.9
2018-07-26T09:37:58.899Z,25.9
2018-07-26T09:38:49.264Z,25.9
2018-07-26T09:39:39.305Z,25.9
2018-07-26T09:40:29.137Z,25.9
2018-07-26T09:41:20.502Z,25.9
2018-07-26T09:42:08.947Z,25.9
2018-07-26T09:42:59.306Z,25.9
2018-07-26T09:43:49.595Z,25.9
2018-07-26T09:44:39.991Z,25.9
2018-07-26T09:45:29.766Z,25.9
2018-07-26T09:46:19.534Z,25.9
2018-07-26T09:47:10.175Z,25.9
2018-07-26T09:47:59.661Z,25.9
2018-07-26T09:48:49.779Z,25.9
2018-07-26T09:49:39.668Z,25.9
2018-07-26T09:50:30.159Z,25.9
2018-07-26T09:51:20.522Z,25.9
2018-07-26T09:52:10.812Z,25.9
2018-07-26T09:53:00.577Z,25.9
2018-07-26T09:53:50.946Z,25.9
2018-07-26T09:54:40.155Z,25.9
2018-07-26T09:55:30.786Z,26
2018-07-26T09:56:21.128Z,26
2018-07-26T09:57:10.419Z,26
2018-07-26T09:58:00.498Z,26
2018-07-26T09:58:49.969Z,26
2018-07-26T09:59:41.489Z,26
2018-07-26T10:00:31.473Z,26
2018-07-26T10:01:21.317Z,26
2018-07-26T10:02:11.543Z,26
2018-07-26T10:03:01.386Z,26
2018-07-26T10:03:51.163Z,26
2018-07-26T10:04:40.973Z,26
2018-07-26T10:05:31.841Z,26
2018-07-26T10:06:21.588Z,26
2018-07-26T10:07:11.956Z,26.1
2018-07-26T10:08:01.195Z,26.1
2018-07-26T10:08:51.527Z,26
2018-07-26T10:09:42.241Z,26.1
2018-07-26T10:10:31.457Z,26.1
2018-07-26T10:11:22.032Z,26.1
2018-07-26T10:12:11.538Z,26.1
2018-07-26T10:13:02.201Z,26.1
2018-07-26T10:13:52.235Z,26
2018-07-26T10:14:41.477Z,26.1
2018-07-26T10:15:32.380Z,26
2018-07-26T10:16:22.683Z,26
2018-07-26T10:17:12.821Z,26
2018-07-26T10:18:02.047Z,26
2018-07-26T10:18:52.619Z,26
2018-07-26T10:19:42.760Z,26
2018-07-26T10:20:31.916Z,26
2018-07-26T10:21:22.636Z,26
2018-07-26T10:22:13.220Z,26.1
2018-07-26T10:23:02.695Z,26.1
2018-07-26T10:23:52.542Z,26.1
2018-07-26T10:24:43.109Z,26.1
2018-07-26T10:25:32.877Z,26.1
2018-07-26T10:26:22.400Z,26.1
2018-07-26T10:27:13.022Z,26.1
2018-07-26T10:28:03.032Z,26.1
2018-07-26T10:28:52.330Z,26.1
2018-07-26T10:29:42.918Z,26.1
2018-07-26T10:30:33.542Z,26.1
2018-07-26T10:31:23.393Z,26.1
2018-07-26T10:32:13.945Z,26.1
2018-07-26T10:33:03.467Z,26.1
2018-07-26T10:33:53.490Z,26.1
2018-07-26T10:34:43.831Z,26.1
2018-07-26T10:35:33.875Z,26.1
2018-07-26T10:36:23.427Z,26.1
2018-07-26T10:37:14.301Z,26.1
2018-07-26T10:38:04.143Z,26.1
2018-07-26T10:38:54.012Z,26.1
2018-07-26T10:39:44.205Z,26.1
2018-07-26T10:40:34.309Z,26.1
2018-07-26T10:41:23.954Z,26.1
2018-07-26T10:42:14.414Z,26.1
2018-07-26T10:43:04.518Z,26.1
2018-07-26T10:43:53.977Z,26.1
2018-07-26T10:44:45.141Z,26.1
2018-07-26T10:45:34.730Z,26.1
2018-07-26T10:46:24.214Z,26.1
2018-07-26T10:47:14.519Z,26.1
2018-07-26T10:48:04.123Z,26.1
2018-07-26T10:48:55.278Z,26.1
2018-07-26T10:49:44.539Z,26.1
2018-07-26T10:50:34.569Z,26.1
2018-07-26T10:51:23.844Z,26.1
2018-07-26T10:52:15.242Z,26.1
2018-07-26T10:53:04.756Z,26.1
2018-07-26T10:53:54.235Z,26.1
2018-07-26T10:54:45.440Z,26.1
2018-07-26T10:55:35.211Z,26.1
2018-07-26T10:56:25.021Z,26.1
2018-07-26T10:57:15.613Z,26.1
2018-07-26T10:58:04.589Z,26.1
2018-07-26T10:58:55.481Z,26.1
2018-07-26T10:59:45.236Z,26.1
2018-07-26T11:00:35.094Z,26.1
2018-07-26T11:01:25.745Z,26.1
2018-07-26T11:02:15.190Z,26.1
2018-07-26T11:03:06.339Z,26.1
2018-07-26T11:03:56.710Z,26.1
2018-07-26T11:04:46.440Z,26.1
2018-07-26T11:05:35.641Z,26.1
2018-07-26T11:06:25.226Z,26.1
2018-07-26T11:07:16.156Z,26.1
2018-07-26T11:08:06.721Z,26.2